sensor_id;sensor_type;location;lat;lon;timestamp;P1;durP1;ratioP1;P2;durP2;ratioP2
36001;SDS011;22070;50.922;5.430;2023-07-22T00:00:32;12.77;;;5.88;;
36001;SDS011;22070;50.922;5.430;2023-07-22T00:02:58;15.17;;;6.13;;
36001;SDS011;22070;50.922;5.430;2023-07-22T00:05:23;9.10;;;5.73;;
36001;SDS011;22070;50.922;5.430;2023-07-22T00:07:50;8.95;;;6.03;;
36001;SDS011;22070;50.922;5.430;2023-07-22T00:10:16;9.45;;;5.45;;
36001;SDS011;22070;50.922;5.430;2023-07-22T00:12:42;11.93;;;4.60;;
36001;SDS011;22070;50.922;5.430;2023-07-22T00:15:07;7.88;;;5.85;;
36001;SDS011;22070;50.922;5.430;2023-07-22T00:17:36;9.77;;;6.07;;
36001;SDS011;22070;50.922;5.430;2023-07-22T00:20:03;9.45;;;6.05;;
36001;SDS011;22070;50.922;5.430;2023-07-22T00:22:29;8.80;;;6.65;;
36001;SDS011;22070;50.922;5.430;2023-07-22T00:24:56;9.40;;;6.30;;
36001;SDS011;22070;50.922;5.430;2023-07-22T00:27:25;8.05;;;6.22;;
36001;SDS011;22070;50.922;5.430;2023-07-22T00:29:50;8.73;;;4.80;;
36001;SDS011;22070;50.922;5.430;2023-07-22T00:32:16;9.00;;;6.60;;
36001;SDS011;22070;50.922;5.430;2023-07-22T00:34:43;9.15;;;6.40;;
36001;SDS011;22070;50.922;5.430;2023-07-22T00:37:08;11.57;;;6.32;;
36001;SDS011;22070;50.922;5.430;2023-07-22T00:39:34;11.18;;;5.88;;
36001;SDS011;22070;50.922;5.430;2023-07-22T00:42:00;9.57;;;6.10;;
36001;SDS011;22070;50.922;5.430;2023-07-22T00:44:25;12.10;;;6.28;;
36001;SDS011;22070;50.922;5.430;2023-07-22T00:46:53;14.43;;;7.50;;
36001;SDS011;22070;50.922;5.430;2023-07-22T00:49:20;10.20;;;6.60;;
36001;SDS011;22070;50.922;5.430;2023-07-22T00:51:46;9.17;;;6.17;;
36001;SDS011;22070;50.922;5.430;2023-07-22T00:54:12;8.13;;;6.20;;
36001;SDS011;22070;50.922;5.430;2023-07-22T00:56:37;8.52;;;6.45;;
36001;SDS011;22070;50.922;5.430;2023-07-22T00:59:05;8.82;;;6.57;;
36001;SDS011;22070;50.922;5.430;2023-07-22T01:01:31;11.00;;;7.10;;
36001;SDS011;22070;50.922;5.430;2023-07-22T01:03:56;8.13;;;6.45;;
36001;SDS011;22070;50.922;5.430;2023-07-22T01:06:22;9.68;;;6.57;;
36001;SDS011;22070;50.922;5.430;2023-07-22T01:08:49;9.32;;;6.20;;
36001;SDS011;22070;50.922;5.430;2023-07-22T01:11:16;9.77;;;6.30;;
36001;SDS011;22070;50.922;5.430;2023-07-22T01:13:41;10.32;;;6.18;;
36001;SDS011;22070;50.922;5.430;2023-07-22T01:16:08;8.80;;;6.20;;
36001;SDS011;22070;50.922;5.430;2023-07-22T01:18:33;8.25;;;5.93;;
36001;SDS011;22070;50.922;5.430;2023-07-22T01:21:00;11.98;;;7.05;;
36001;SDS011;22070;50.922;5.430;2023-07-22T01:23:26;8.47;;;6.17;;
36001;SDS011;22070;50.922;5.430;2023-07-22T01:25:51;9.32;;;6.88;;
36001;SDS011;22070;50.922;5.430;2023-07-22T01:28:20;12.10;;;6.93;;
36001;SDS011;22070;50.922;5.430;2023-07-22T01:30:46;11.05;;;6.65;;
36001;SDS011;22070;50.922;5.430;2023-07-22T01:33:13;10.13;;;6.50;;
36001;SDS011;22070;50.922;5.430;2023-07-22T01:35:39;12.07;;;6.60;;
36001;SDS011;22070;50.922;5.430;2023-07-22T01:38:05;10.43;;;6.63;;
36001;SDS011;22070;50.922;5.430;2023-07-22T01:40:33;12.13;;;6.88;;
36001;SDS011;22070;50.922;5.430;2023-07-22T01:42:58;9.20;;;6.70;;
36001;SDS011;22070;50.922;5.430;2023-07-22T01:45:24;9.23;;;6.43;;
36001;SDS011;22070;50.922;5.430;2023-07-22T01:47:50;11.07;;;6.97;;
36001;SDS011;22070;50.922;5.430;2023-07-22T01:50:16;11.80;;;6.77;;
36001;SDS011;22070;50.922;5.430;2023-07-22T01:52:43;9.32;;;6.45;;
36001;SDS011;22070;50.922;5.430;2023-07-22T01:55:11;11.35;;;6.60;;
36001;SDS011;22070;50.922;5.430;2023-07-22T01:57:37;12.05;;;7.13;;
36001;SDS011;22070;50.922;5.430;2023-07-22T02:02:30;11.85;;;6.63;;
36001;SDS011;22070;50.922;5.430;2023-07-22T02:04:56;13.35;;;7.07;;
36001;SDS011;22070;50.922;5.430;2023-07-22T02:07:21;12.63;;;6.93;;
36001;SDS011;22070;50.922;5.430;2023-07-22T02:09:47;7.63;;;4.95;;
36001;SDS011;22070;50.922;5.430;2023-07-22T02:12:12;10.98;;;6.53;;
36001;SDS011;22070;50.922;5.430;2023-07-22T02:14:38;14.02;;;7.43;;
36001;SDS011;22070;50.922;5.430;2023-07-22T02:17:04;14.55;;;6.70;;
36001;SDS011;22070;50.922;5.430;2023-07-22T02:19:30;7.43;;;5.07;;
36001;SDS011;22070;50.922;5.430;2023-07-22T02:21:55;11.10;;;7.07;;
36001;SDS011;22070;50.922;5.430;2023-07-22T02:24:21;8.30;;;6.32;;
36001;SDS011;22070;50.922;5.430;2023-07-22T02:26:47;9.30;;;6.78;;
36001;SDS011;22070;50.922;5.430;2023-07-22T02:29:13;14.05;;;7.32;;
36001;SDS011;22070;50.922;5.430;2023-07-22T02:31:38;9.43;;;6.80;;
36001;SDS011;22070;50.922;5.430;2023-07-22T02:34:04;8.90;;;6.50;;
36001;SDS011;22070;50.922;5.430;2023-07-22T02:36:30;12.30;;;7.03;;
36001;SDS011;22070;50.922;5.430;2023-07-22T02:38:56;8.55;;;6.47;;
36001;SDS011;22070;50.922;5.430;2023-07-22T02:41:22;11.32;;;6.38;;
36001;SDS011;22070;50.922;5.430;2023-07-22T02:43:47;10.00;;;6.80;;
36001;SDS011;22070;50.922;5.430;2023-07-22T02:46:13;10.68;;;6.57;;
36001;SDS011;22070;50.922;5.430;2023-07-22T02:48:38;10.63;;;6.78;;
36001;SDS011;22070;50.922;5.430;2023-07-22T02:51:06;10.25;;;6.53;;
36001;SDS011;22070;50.922;5.430;2023-07-22T02:53:33;9.77;;;6.78;;
36001;SDS011;22070;50.922;5.430;2023-07-22T02:56:01;8.73;;;6.30;;
36001;SDS011;22070;50.922;5.430;2023-07-22T02:58:27;9.57;;;6.57;;
36001;SDS011;22070;50.922;5.430;2023-07-22T03:00:53;7.00;;;4.90;;
36001;SDS011;22070;50.922;5.430;2023-07-22T03:03:18;10.43;;;6.40;;
36001;SDS011;22070;50.922;5.430;2023-07-22T03:05:44;10.90;;;6.03;;
36001;SDS011;22070;50.922;5.430;2023-07-22T03:08:10;9.18;;;6.93;;
36001;SDS011;22070;50.922;5.430;2023-07-22T03:10:36;9.83;;;6.50;;
36001;SDS011;22070;50.922;5.430;2023-07-22T03:13:01;12.57;;;6.82;;
36001;SDS011;22070;50.922;5.430;2023-07-22T03:15:28;11.82;;;6.75;;
36001;SDS011;22070;50.922;5.430;2023-07-22T03:17:54;9.30;;;6.35;;
36001;SDS011;22070;50.922;5.430;2023-07-22T03:20:21;9.40;;;7.03;;
36001;SDS011;22070;50.922;5.430;2023-07-22T03:22:48;10.55;;;7.13;;
36001;SDS011;22070;50.922;5.430;2023-07-22T03:25:14;14.38;;;7.05;;
36001;SDS011;22070;50.922;5.430;2023-07-22T03:27:42;13.05;;;7.05;;
36001;SDS011;22070;50.922;5.430;2023-07-22T03:30:10;12.07;;;6.60;;
36001;SDS011;22070;50.922;5.430;2023-07-22T03:32:39;10.48;;;6.50;;
36001;SDS011;22070;50.922;5.430;2023-07-22T03:35:06;7.90;;;6.18;;
36001;SDS011;22070;50.922;5.430;2023-07-22T03:37:33;16.52;;;6.80;;
36001;SDS011;22070;50.922;5.430;2023-07-22T03:40:01;9.25;;;7.10;;
36001;SDS011;22070;50.922;5.430;2023-07-22T03:42:27;12.57;;;6.70;;
36001;SDS011;22070;50.922;5.430;2023-07-22T03:44:53;10.32;;;6.57;;
36001;SDS011;22070;50.922;5.430;2023-07-22T03:47:19;11.05;;;7.15;;
36001;SDS011;22070;50.922;5.430;2023-07-22T03:49:45;12.60;;;6.47;;
36001;SDS011;22070;50.922;5.430;2023-07-22T03:52:11;10.98;;;7.43;;
36001;SDS011;22070;50.922;5.430;2023-07-22T03:54:39;12.52;;;7.00;;
36001;SDS011;22070;50.922;5.430;2023-07-22T03:57:05;10.57;;;7.38;;
36001;SDS011;22070;50.922;5.430;2023-07-22T03:59:31;11.07;;;7.30;;
36001;SDS011;22070;50.922;5.430;2023-07-22T04:01:57;10.82;;;7.35;;
36001;SDS011;22070;50.922;5.430;2023-07-22T04:04:22;15.55;;;8.02;;
36001;SDS011;22070;50.922;5.430;2023-07-22T04:06:48;11.57;;;7.55;;
36001;SDS011;22070;50.922;5.430;2023-07-22T04:09:13;12.73;;;7.53;;
36001;SDS011;22070;50.922;5.430;2023-07-22T04:11:39;11.05;;;7.45;;
36001;SDS011;22070;50.922;5.430;2023-07-22T04:14:05;11.25;;;7.68;;
36001;SDS011;22070;50.922;5.430;2023-07-22T04:16:30;14.15;;;8.00;;
36001;SDS011;22070;50.922;5.430;2023-07-22T04:18:56;10.30;;;7.32;;
36001;SDS011;22070;50.922;5.430;2023-07-22T04:21:22;13.18;;;8.02;;
36001;SDS011;22070;50.922;5.430;2023-07-22T04:23:47;13.40;;;8.40;;
36001;SDS011;22070;50.922;5.430;2023-07-22T04:26:14;12.30;;;7.82;;
36001;SDS011;22070;50.922;5.430;2023-07-22T04:28:40;14.10;;;8.68;;
36001;SDS011;22070;50.922;5.430;2023-07-22T04:31:05;12.45;;;8.35;;
36001;SDS011;22070;50.922;5.430;2023-07-22T04:33:31;24.02;;;9.32;;
36001;SDS011;22070;50.922;5.430;2023-07-22T04:35:58;11.30;;;6.13;;
36001;SDS011;22070;50.922;5.430;2023-07-22T04:38:24;15.05;;;8.23;;
36001;SDS011;22070;50.922;5.430;2023-07-22T04:40:50;13.73;;;7.78;;
36001;SDS011;22070;50.922;5.430;2023-07-22T04:43:16;17.10;;;8.95;;
36001;SDS011;22070;50.922;5.430;2023-07-22T04:45:44;13.83;;;8.40;;
36001;SDS011;22070;50.922;5.430;2023-07-22T04:48:10;16.38;;;8.70;;
36001;SDS011;22070;50.922;5.430;2023-07-22T04:50:36;14.60;;;8.60;;
36001;SDS011;22070;50.922;5.430;2023-07-22T04:53:05;15.80;;;9.20;;
36001;SDS011;22070;50.922;5.430;2023-07-22T04:55:32;17.73;;;9.05;;
36001;SDS011;22070;50.922;5.430;2023-07-22T04:57:58;13.50;;;8.43;;
36001;SDS011;22070;50.922;5.430;2023-07-22T05:00:23;18.95;;;8.93;;
36001;SDS011;22070;50.922;5.430;2023-07-22T05:02:49;14.10;;;9.23;;
36001;SDS011;22070;50.922;5.430;2023-07-22T05:05:17;18.15;;;9.55;;
36001;SDS011;22070;50.922;5.430;2023-07-22T05:07:42;14.05;;;8.65;;
36001;SDS011;22070;50.922;5.430;2023-07-22T05:10:08;16.77;;;9.73;;
36001;SDS011;22070;50.922;5.430;2023-07-22T05:12:39;16.20;;;8.43;;
36001;SDS011;22070;50.922;5.430;2023-07-22T05:15:10;31.20;;;9.57;;
36001;SDS011;22070;50.922;5.430;2023-07-22T05:17:36;21.00;;;9.57;;
36001;SDS011;22070;50.922;5.430;2023-07-22T05:20:02;18.13;;;9.45;;
36001;SDS011;22070;50.922;5.430;2023-07-22T05:22:31;15.63;;;9.40;;
36001;SDS011;22070;50.922;5.430;2023-07-22T05:24:57;16.63;;;9.27;;
36001;SDS011;22070;50.922;5.430;2023-07-22T05:27:24;16.40;;;8.98;;
36001;SDS011;22070;50.922;5.430;2023-07-22T05:29:50;10.23;;;6.70;;
36001;SDS011;22070;50.922;5.430;2023-07-22T05:32:15;17.42;;;9.73;;
36001;SDS011;22070;50.922;5.430;2023-07-22T05:34:41;23.50;;;9.70;;
36001;SDS011;22070;50.922;5.430;2023-07-22T05:37:07;14.68;;;9.93;;
36001;SDS011;22070;50.922;5.430;2023-07-22T05:39:32;18.50;;;9.23;;
36001;SDS011;22070;50.922;5.430;2023-07-22T05:41:58;13.53;;;9.30;;
36001;SDS011;22070;50.922;5.430;2023-07-22T05:44:23;14.90;;;10.27;;
36001;SDS011;22070;50.922;5.430;2023-07-22T05:46:49;17.40;;;9.73;;
36001;SDS011;22070;50.922;5.430;2023-07-22T05:49:15;16.43;;;9.67;;
36001;SDS011;22070;50.922;5.430;2023-07-22T05:51:40;21.20;;;9.45;;
36001;SDS011;22070;50.922;5.430;2023-07-22T05:54:06;17.23;;;10.32;;
36001;SDS011;22070;50.922;5.430;2023-07-22T05:56:32;20.27;;;9.75;;
36001;SDS011;22070;50.922;5.430;2023-07-22T05:58:57;15.18;;;9.30;;
36001;SDS011;22070;50.922;5.430;2023-07-22T06:01:23;16.35;;;9.52;;
36001;SDS011;22070;50.922;5.430;2023-07-22T06:03:49;22.42;;;10.00;;
36001;SDS011;22070;50.922;5.430;2023-07-22T06:06:15;17.85;;;10.23;;
36001;SDS011;22070;50.922;5.430;2023-07-22T06:08:41;23.25;;;9.88;;
36001;SDS011;22070;50.922;5.430;2023-07-22T06:11:07;16.95;;;9.98;;
36001;SDS011;22070;50.922;5.430;2023-07-22T06:13:32;19.65;;;10.57;;
36001;SDS011;22070;50.922;5.430;2023-07-22T06:15:58;20.23;;;9.63;;
36001;SDS011;22070;50.922;5.430;2023-07-22T06:18:23;18.73;;;9.52;;
36001;SDS011;22070;50.922;5.430;2023-07-22T06:20:49;15.77;;;9.40;;
36001;SDS011;22070;50.922;5.430;2023-07-22T06:23:16;13.32;;;8.95;;
36001;SDS011;22070;50.922;5.430;2023-07-22T06:25:41;19.63;;;9.53;;
36001;SDS011;22070;50.922;5.430;2023-07-22T06:28:08;16.67;;;9.83;;
36001;SDS011;22070;50.922;5.430;2023-07-22T06:30:33;17.37;;;9.43;;
36001;SDS011;22070;50.922;5.430;2023-07-22T06:32:59;17.95;;;10.18;;
36001;SDS011;22070;50.922;5.430;2023-07-22T06:35:24;17.23;;;8.47;;
36001;SDS011;22070;50.922;5.430;2023-07-22T06:37:50;18.67;;;9.03;;
36001;SDS011;22070;50.922;5.430;2023-07-22T06:40:16;19.27;;;9.88;;
36001;SDS011;22070;50.922;5.430;2023-07-22T06:42:42;18.00;;;8.80;;
36001;SDS011;22070;50.922;5.430;2023-07-22T06:45:07;10.65;;;6.68;;
36001;SDS011;22070;50.922;5.430;2023-07-22T06:47:33;18.33;;;9.43;;
36001;SDS011;22070;50.922;5.430;2023-07-22T06:50:00;19.08;;;8.80;;
36001;SDS011;22070;50.922;5.430;2023-07-22T06:52:25;18.07;;;9.13;;
36001;SDS011;22070;50.922;5.430;2023-07-22T06:54:51;16.63;;;8.83;;
36001;SDS011;22070;50.922;5.430;2023-07-22T06:57:17;13.37;;;6.43;;
36001;SDS011;22070;50.922;5.430;2023-07-22T06:59:43;16.70;;;8.97;;
36001;SDS011;22070;50.922;5.430;2023-07-22T07:02:08;14.10;;;8.47;;
36001;SDS011;22070;50.922;5.430;2023-07-22T07:04:34;17.50;;;9.65;;
36001;SDS011;22070;50.922;5.430;2023-07-22T07:07:00;20.20;;;9.60;;
36001;SDS011;22070;50.922;5.430;2023-07-22T07:09:26;21.07;;;9.20;;
36001;SDS011;22070;50.922;5.430;2023-07-22T07:11:51;19.60;;;8.07;;
36001;SDS011;22070;50.922;5.430;2023-07-22T07:14:17;19.43;;;8.73;;
36001;SDS011;22070;50.922;5.430;2023-07-22T07:16:43;18.67;;;9.20;;
36001;SDS011;22070;50.922;5.430;2023-07-22T07:19:09;16.80;;;8.30;;
36001;SDS011;22070;50.922;5.430;2023-07-22T07:21:35;14.37;;;8.20;;
36001;SDS011;22070;50.922;5.430;2023-07-22T07:24:01;14.10;;;7.83;;
36001;SDS011;22070;50.922;5.430;2023-07-22T07:26:27;15.77;;;8.30;;
36001;SDS011;22070;50.922;5.430;2023-07-22T07:28:52;15.43;;;8.17;;
36001;SDS011;22070;50.922;5.430;2023-07-22T07:31:18;18.98;;;8.02;;
36001;SDS011;22070;50.922;5.430;2023-07-22T07:33:44;16.67;;;7.70;;
36001;SDS011;22070;50.922;5.430;2023-07-22T07:36:10;15.07;;;7.73;;
36001;SDS011;22070;50.922;5.430;2023-07-22T07:38:36;18.67;;;7.47;;
36001;SDS011;22070;50.922;5.430;2023-07-22T07:41:03;15.17;;;7.43;;
36001;SDS011;22070;50.922;5.430;2023-07-22T07:43:30;16.25;;;7.40;;
36001;SDS011;22070;50.922;5.430;2023-07-22T07:46:11;11.70;;;7.07;;
36001;SDS011;22070;50.922;5.430;2023-07-22T07:48:48;13.20;;;6.88;;
36001;SDS011;22070;50.922;5.430;2023-07-22T07:51:15;13.18;;;7.00;;
36001;SDS011;22070;50.922;5.430;2023-07-22T07:53:42;17.13;;;6.75;;
36001;SDS011;22070;50.922;5.430;2023-07-22T07:56:09;11.85;;;5.95;;
36001;SDS011;22070;50.922;5.430;2023-07-22T07:58:36;16.20;;;6.28;;
36001;SDS011;22070;50.922;5.430;2023-07-22T08:01:02;10.68;;;5.80;;
36001;SDS011;22070;50.922;5.430;2023-07-22T08:03:28;12.48;;;6.80;;
36001;SDS011;22070;50.922;5.430;2023-07-22T08:05:54;9.63;;;5.30;;
36001;SDS011;22070;50.922;5.430;2023-07-22T08:08:21;11.03;;;5.57;;
36001;SDS011;22070;50.922;5.430;2023-07-22T08:13:13;16.55;;;6.40;;
36001;SDS011;22070;50.922;5.430;2023-07-22T08:15:39;10.60;;;6.22;;
36001;SDS011;22070;50.922;5.430;2023-07-22T08:18:06;11.00;;;5.53;;
36001;SDS011;22070;50.922;5.430;2023-07-22T08:20:32;11.23;;;4.93;;
36001;SDS011;22070;50.922;5.430;2023-07-22T08:22:58;11.87;;;4.77;;
36001;SDS011;22070;50.922;5.430;2023-07-22T08:25:23;13.23;;;4.77;;
36001;SDS011;22070;50.922;5.430;2023-07-22T08:27:49;8.93;;;5.30;;
36001;SDS011;22070;50.922;5.430;2023-07-22T08:30:14;9.60;;;4.50;;
36001;SDS011;22070;50.922;5.430;2023-07-22T08:32:40;11.67;;;4.83;;
36001;SDS011;22070;50.922;5.430;2023-07-22T08:35:06;11.20;;;4.43;;
36001;SDS011;22070;50.922;5.430;2023-07-22T08:37:32;8.67;;;4.40;;
36001;SDS011;22070;50.922;5.430;2023-07-22T08:39:57;9.87;;;4.77;;
36001;SDS011;22070;50.922;5.430;2023-07-22T08:42:23;6.07;;;4.23;;
36001;SDS011;22070;50.922;5.430;2023-07-22T08:47:19;8.85;;;3.33;;
36001;SDS011;22070;50.922;5.430;2023-07-22T08:49:49;6.90;;;3.40;;
36001;SDS011;22070;50.922;5.430;2023-07-22T08:52:17;8.05;;;3.30;;
36001;SDS011;22070;50.922;5.430;2023-07-22T08:54:43;10.57;;;3.80;;
36001;SDS011;22070;50.922;5.430;2023-07-22T08:57:11;7.38;;;3.47;;
36001;SDS011;22070;50.922;5.430;2023-07-22T08:59:37;7.10;;;2.85;;
36001;SDS011;22070;50.922;5.430;2023-07-22T09:02:03;5.63;;;2.83;;
36001;SDS011;22070;50.922;5.430;2023-07-22T09:06:56;5.00;;;2.78;;
36001;SDS011;22070;50.922;5.430;2023-07-22T09:09:23;4.07;;;2.60;;
36001;SDS011;22070;50.922;5.430;2023-07-22T09:11:49;6.70;;;3.03;;
36001;SDS011;22070;50.922;5.430;2023-07-22T09:14:18;5.13;;;2.92;;
36001;SDS011;22070;50.922;5.430;2023-07-22T09:16:45;6.28;;;3.05;;
36001;SDS011;22070;50.922;5.430;2023-07-22T09:19:11;4.85;;;2.72;;
36001;SDS011;22070;50.922;5.430;2023-07-22T09:21:38;8.53;;;2.47;;
36001;SDS011;22070;50.922;5.430;2023-07-22T09:24:23;7.23;;;2.70;;
36001;SDS011;22070;50.922;5.430;2023-07-22T09:26:50;9.57;;;2.78;;
36001;SDS011;22070;50.922;5.430;2023-07-22T09:29:16;4.60;;;2.20;;
36001;SDS011;22070;50.922;5.430;2023-07-22T09:31:52;5.10;;;2.13;;
36001;SDS011;22070;50.922;5.430;2023-07-22T09:34:19;4.63;;;2.35;;
36001;SDS011;22070;50.922;5.430;2023-07-22T09:36:54;3.30;;;2.40;;
36001;SDS011;22070;50.922;5.430;2023-07-22T09:41:47;9.20;;;2.80;;
36001;SDS011;22070;50.922;5.430;2023-07-22T09:44:13;4.93;;;2.63;;
36001;SDS011;22070;50.922;5.430;2023-07-22T09:46:39;4.03;;;2.20;;
36001;SDS011;22070;50.922;5.430;2023-07-22T09:49:06;5.60;;;2.03;;
36001;SDS011;22070;50.922;5.430;2023-07-22T09:51:35;4.63;;;2.35;;
36001;SDS011;22070;50.922;5.430;2023-07-22T09:54:03;4.20;;;2.22;;
36001;SDS011;22070;50.922;5.430;2023-07-22T09:56:30;5.53;;;1.98;;
36001;SDS011;22070;50.922;5.430;2023-07-22T10:01:29;4.65;;;1.73;;
36001;SDS011;22070;50.922;5.430;2023-07-22T10:03:55;3.67;;;1.55;;
36001;SDS011;22070;50.922;5.430;2023-07-22T10:06:27;2.67;;;1.83;;
36001;SDS011;22070;50.922;5.430;2023-07-22T10:08:56;5.68;;;2.47;;
36001;SDS011;22070;50.922;5.430;2023-07-22T10:11:29;3.35;;;2.10;;
36001;SDS011;22070;50.922;5.430;2023-07-22T10:13:57;4.03;;;2.45;;
36001;SDS011;22070;50.922;5.430;2023-07-22T10:16:24;3.33;;;1.88;;
36001;SDS011;22070;50.922;5.430;2023-07-22T10:18:50;4.43;;;2.03;;
36001;SDS011;22070;50.922;5.430;2023-07-22T10:21:17;4.78;;;1.90;;
36001;SDS011;22070;50.922;5.430;2023-07-22T10:23:43;4.97;;;2.05;;
36001;SDS011;22070;50.922;5.430;2023-07-22T10:26:12;6.25;;;2.25;;
36001;SDS011;22070;50.922;5.430;2023-07-22T10:28:41;4.10;;;2.10;;
36001;SDS011;22070;50.922;5.430;2023-07-22T10:31:08;4.03;;;1.70;;
36001;SDS011;22070;50.922;5.430;2023-07-22T10:33:34;2.73;;;1.80;;
36001;SDS011;22070;50.922;5.430;2023-07-22T10:36:04;4.30;;;2.00;;
36001;SDS011;22070;50.922;5.430;2023-07-22T10:38:32;3.33;;;2.00;;
36001;SDS011;22070;50.922;5.430;2023-07-22T10:45:50;1.87;;;1.57;;
36001;SDS011;22070;50.922;5.430;2023-07-22T10:48:18;3.25;;;1.60;;
36001;SDS011;22070;50.922;5.430;2023-07-22T10:50:46;2.35;;;1.70;;
36001;SDS011;22070;50.922;5.430;2023-07-22T10:58:35;3.17;;;1.58;;
36001;SDS011;22070;50.922;5.430;2023-07-22T11:11:52;3.53;;;1.60;;
36001;SDS011;22070;50.922;5.430;2023-07-22T11:14:22;4.22;;;2.08;;
36001;SDS011;22070;50.922;5.430;2023-07-22T11:16:53;4.95;;;1.80;;
36001;SDS011;22070;50.922;5.430;2023-07-22T11:19:21;4.28;;;1.75;;
36001;SDS011;22070;50.922;5.430;2023-07-22T11:21:51;3.53;;;2.17;;
36001;SDS011;22070;50.922;5.430;2023-07-22T11:24:18;2.25;;;2.03;;
36001;SDS011;22070;50.922;5.430;2023-07-22T11:29:14;2.42;;;2.08;;
36001;SDS011;22070;50.922;5.430;2023-07-22T11:31:41;1.95;;;1.77;;
36001;SDS011;22070;50.922;5.430;2023-07-22T11:34:21;4.38;;;1.85;;
36001;SDS011;22070;50.922;5.430;2023-07-22T11:36:49;4.03;;;2.00;;
36001;SDS011;22070;50.922;5.430;2023-07-22T11:39:23;3.28;;;2.38;;
36001;SDS011;22070;50.922;5.430;2023-07-22T11:41:52;3.17;;;2.10;;
36001;SDS011;22070;50.922;5.430;2023-07-22T11:44:19;2.13;;;1.90;;
36001;SDS011;22070;50.922;5.430;2023-07-22T11:46:46;7.80;;;2.20;;
36001;SDS011;22070;50.922;5.430;2023-07-22T11:49:22;1.98;;;1.77;;
36001;SDS011;22070;50.922;5.430;2023-07-22T11:51:50;3.90;;;2.08;;
36001;SDS011;22070;50.922;5.430;2023-07-22T11:54:16;4.28;;;1.80;;
36001;SDS011;22070;50.922;5.430;2023-07-22T11:56:43;5.72;;;2.17;;
36001;SDS011;22070;50.922;5.430;2023-07-22T11:59:08;3.03;;;2.07;;
36001;SDS011;22070;50.922;5.430;2023-07-22T12:01:34;2.07;;;1.80;;
36001;SDS011;22070;50.922;5.430;2023-07-22T12:03:59;1.90;;;1.80;;
36001;SDS011;22070;50.922;5.430;2023-07-22T12:06:25;2.80;;;2.07;;
36001;SDS011;22070;50.922;5.430;2023-07-22T12:08:52;4.50;;;2.05;;
36001;SDS011;22070;50.922;5.430;2023-07-22T12:11:19;3.80;;;1.65;;
36001;SDS011;22070;50.922;5.430;2023-07-22T12:13:46;2.58;;;1.92;;
36001;SDS011;22070;50.922;5.430;2023-07-22T12:16:20;3.05;;;1.83;;
36001;SDS011;22070;50.922;5.430;2023-07-22T12:18:49;2.60;;;1.73;;
36001;SDS011;22070;50.922;5.430;2023-07-22T12:21:14;2.07;;;1.80;;
36001;SDS011;22070;50.922;5.430;2023-07-22T12:23:41;3.30;;;2.08;;
36001;SDS011;22070;50.922;5.430;2023-07-22T12:26:07;4.18;;;1.63;;
36001;SDS011;22070;50.922;5.430;2023-07-22T12:28:33;1.97;;;1.50;;
36001;SDS011;22070;50.922;5.430;2023-07-22T12:30:59;1.63;;;1.23;;
36001;SDS011;22070;50.922;5.430;2023-07-22T12:33:25;3.45;;;1.50;;
36001;SDS011;22070;50.922;5.430;2023-07-22T12:35:55;2.20;;;1.70;;
36001;SDS011;22070;50.922;5.430;2023-07-22T12:38:21;1.70;;;1.50;;
36001;SDS011;22070;50.922;5.430;2023-07-22T12:40:47;2.53;;;1.57;;
36001;SDS011;22070;50.922;5.430;2023-07-22T12:43:13;2.37;;;1.60;;
36001;SDS011;22070;50.922;5.430;2023-07-22T12:45:38;1.97;;;1.73;;
36001;SDS011;22070;50.922;5.430;2023-07-22T12:48:04;2.00;;;1.50;;
36001;SDS011;22070;50.922;5.430;2023-07-22T12:50:30;4.10;;;1.97;;
36001;SDS011;22070;50.922;5.430;2023-07-22T12:52:57;2.92;;;1.70;;
36001;SDS011;22070;50.922;5.430;2023-07-22T12:55:23;2.35;;;1.70;;
36001;SDS011;22070;50.922;5.430;2023-07-22T12:57:48;3.50;;;1.57;;
36001;SDS011;22070;50.922;5.430;2023-07-22T13:00:14;2.00;;;1.40;;
36001;SDS011;22070;50.922;5.430;2023-07-22T13:02:40;2.97;;;1.87;;
36001;SDS011;22070;50.922;5.430;2023-07-22T13:05:05;3.97;;;1.50;;
36001;SDS011;22070;50.922;5.430;2023-07-22T13:07:32;2.25;;;1.70;;
36001;SDS011;22070;50.922;5.430;2023-07-22T13:09:58;1.63;;;1.50;;
36001;SDS011;22070;50.922;5.430;2023-07-22T13:12:26;3.17;;;1.65;;
36001;SDS011;22070;50.922;5.430;2023-07-22T13:14:51;2.00;;;1.80;;
36001;SDS011;22070;50.922;5.430;2023-07-22T13:17:17;4.20;;;1.90;;
36001;SDS011;22070;50.922;5.430;2023-07-22T13:19:43;4.30;;;1.60;;
36001;SDS011;22070;50.922;5.430;2023-07-22T13:22:08;4.07;;;1.93;;
36001;SDS011;22070;50.922;5.430;2023-07-22T13:24:34;4.07;;;2.07;;
36001;SDS011;22070;50.922;5.430;2023-07-22T13:27:00;2.97;;;1.90;;
36001;SDS011;22070;50.922;5.430;2023-07-22T13:29:25;5.47;;;2.10;;
36001;SDS011;22070;50.922;5.430;2023-07-22T13:34:18;2.80;;;1.77;;
36001;SDS011;22070;50.922;5.430;2023-07-22T13:36:43;2.23;;;2.03;;
36001;SDS011;22070;50.922;5.430;2023-07-22T13:39:09;2.73;;;2.03;;
36001;SDS011;22070;50.922;5.430;2023-07-22T13:41:35;6.43;;;2.30;;
36001;SDS011;22070;50.922;5.430;2023-07-22T13:44:00;2.20;;;1.93;;
36001;SDS011;22070;50.922;5.430;2023-07-22T13:46:26;5.07;;;1.97;;
36001;SDS011;22070;50.922;5.430;2023-07-22T13:48:51;3.73;;;2.40;;
36001;SDS011;22070;50.922;5.430;2023-07-22T13:51:17;4.43;;;2.20;;
36001;SDS011;22070;50.922;5.430;2023-07-22T13:53:43;2.13;;;1.90;;
36001;SDS011;22070;50.922;5.430;2023-07-22T13:56:08;2.93;;;1.90;;
36001;SDS011;22070;50.922;5.430;2023-07-22T13:58:34;5.47;;;2.17;;
36001;SDS011;22070;50.922;5.430;2023-07-22T14:00:59;4.87;;;2.20;;
36001;SDS011;22070;50.922;5.430;2023-07-22T14:03:25;4.10;;;2.20;;
36001;SDS011;22070;50.922;5.430;2023-07-22T14:05:51;5.00;;;2.53;;
36001;SDS011;22070;50.922;5.430;2023-07-22T14:08:16;1.90;;;1.67;;
36001;SDS011;22070;50.922;5.430;2023-07-22T14:10:42;2.30;;;2.10;;
36001;SDS011;22070;50.922;5.430;2023-07-22T14:13:07;2.50;;;2.10;;
36001;SDS011;22070;50.922;5.430;2023-07-22T14:15:33;3.60;;;2.17;;
36001;SDS011;22070;50.922;5.430;2023-07-22T14:17:59;3.97;;;2.80;;
36001;SDS011;22070;50.922;5.430;2023-07-22T14:20:24;3.57;;;2.63;;
36001;SDS011;22070;50.922;5.430;2023-07-22T14:22:50;3.07;;;2.33;;
36001;SDS011;22070;50.922;5.430;2023-07-22T14:25:16;6.47;;;2.47;;
36001;SDS011;22070;50.922;5.430;2023-07-22T14:27:41;3.07;;;2.70;;
36001;SDS011;22070;50.922;5.430;2023-07-22T14:30:07;3.60;;;2.63;;
36001;SDS011;22070;50.922;5.430;2023-07-22T14:32:34;5.63;;;2.22;;
36001;SDS011;22070;50.922;5.430;2023-07-22T14:34:59;3.80;;;2.60;;
36001;SDS011;22070;50.922;5.430;2023-07-22T14:37:25;2.57;;;2.33;;
36001;SDS011;22070;50.922;5.430;2023-07-22T14:39:50;6.33;;;2.73;;
36001;SDS011;22070;50.922;5.430;2023-07-22T14:42:16;3.80;;;2.70;;
36001;SDS011;22070;50.922;5.430;2023-07-22T14:44:42;4.23;;;2.43;;
36001;SDS011;22070;50.922;5.430;2023-07-22T14:47:07;4.50;;;2.20;;
36001;SDS011;22070;50.922;5.430;2023-07-22T14:49:33;2.40;;;2.10;;
36001;SDS011;22070;50.922;5.430;2023-07-22T14:51:59;3.10;;;2.47;;
36001;SDS011;22070;50.922;5.430;2023-07-22T14:54:24;2.80;;;1.57;;
36001;SDS011;22070;50.922;5.430;2023-07-22T14:56:50;6.33;;;1.93;;
36001;SDS011;22070;50.922;5.430;2023-07-22T14:59:15;3.87;;;2.90;;
36001;SDS011;22070;50.922;5.430;2023-07-22T15:01:42;5.33;;;2.47;;
36001;SDS011;22070;50.922;5.430;2023-07-22T15:04:08;4.75;;;2.63;;
36001;SDS011;22070;50.922;5.430;2023-07-22T15:06:34;3.75;;;2.08;;
36001;SDS011;22070;50.922;5.430;2023-07-22T15:09:00;5.95;;;1.75;;
36001;SDS011;22070;50.922;5.430;2023-07-22T15:11:27;12.95;;;3.20;;
36001;SDS011;22070;50.922;5.430;2023-07-22T15:13:53;3.50;;;1.90;;
36001;SDS011;22070;50.922;5.430;2023-07-22T15:16:19;1.80;;;1.70;;